Time;durP1;ratioP1;P1;durP2;ratioP2;P2;SDS_P1;SDS_P2;PMS_P1;PMS_P2;Temp;Humidity;BMP_temperature;BMP_pressure;BME280_temperature;BME280_humidity;BME280_pressure;Samples;Min_cycle;Max_cycle;Signal;HPM_P1;HPM_P2
2023/12/08 00:01:44;;;;;;;13.33;11.93;;;;;;;1.72;80.89;94946.25;4998865;28;20226;-68
2023/12/08 00:04:09;;;;;;;13.40;12.00;;;;;;;1.68;79.72;94947.38;5002215;28;20225;-70
2023/12/08 00:06:35;;;;;;;13.80;12.40;;;;;;;1.62;80.88;94945.19;5001531;28;20337;-69
2023/12/08 00:09:01;;;;;;;14.10;12.60;;;;;;;1.64;80.50;94947.69;5007591;28;20225;-67
2023/12/08 00:11:26;;;;;;;13.00;11.70;;;;;;;1.89;79.85;94952.94;5012171;28;20199;-70
2023/12/08 00:13:52;;;;;;;12.73;11.37;;;;;;;1.71;79.66;94951.53;5006367;28;20295;-69
2023/12/08 00:16:17;;;;;;;13.17;11.17;;;;;;;1.97;79.35;94962.81;5003158;28;20326;-69
2023/12/08 00:18:42;;;;;;;14.17;12.67;;;;;;;1.91;79.33;94958.03;5004738;28;20227;-68
2023/12/08 00:21:08;;;;;;;14.43;12.93;;;;;;;1.81;79.71;94956.97;5004053;28;20280;-68
2023/12/08 00:23:34;;;;;;;14.07;12.63;;;;;;;1.75;79.94;94956.44;5007599;28;20256;-68
2023/12/08 00:26:00;;;;;;;12.97;10.83;;;;;;;1.77;79.82;94958.94;4999353;28;20236;-68
2023/12/08 00:28:26;;;;;;;11.53;10.20;;;;;;;1.56;79.84;94955.97;4994366;28;20269;-68
2023/12/08 00:30:54;;;;;;;12.50;10.40;;;;;;;1.67;79.73;94952.69;5002334;28;20219;-69
2023/12/08 00:33:19;;;;;;;11.60;10.10;;;;;;;1.76;79.69;94958.09;4998082;28;20238;-70
2023/12/08 00:35:45;;;;;;;13.43;12.03;;;;;;;1.78;79.93;94958.00;5001353;28;20203;-70
2023/12/08 00:38:11;;;;;;;13.27;11.70;;;;;;;1.65;80.07;94957.13;5001788;28;20184;-70
2023/12/08 00:40:36;;;;;;;13.73;11.43;;;;;;;1.77;79.73;94954.56;4999411;28;20337;-70
2023/12/08 00:43:02;;;;;;;12.27;10.97;;;;;;;1.84;79.51;94954.16;5000578;28;20219;-69
2023/12/08 00:45:27;;;;;;;13.53;12.13;;;;;;;1.93;78.71;94945.78;4999777;28;20220;-71
2023/12/08 00:47:53;;;;;;;12.33;11.10;;;;;;;1.89;78.83;94957.28;4999527;28;20259;-69
2023/12/08 00:50:19;;;;;;;12.97;11.67;;;;;;;1.81;79.25;94952.59;5001133;28;20272;-68
2023/12/08 00:52:44;;;;;;;13.47;12.13;;;;;;;1.96;78.68;94948.19;4998429;28;20222;-70
2023/12/08 00:55:12;;;;;;;12.70;11.40;;;;;;;1.90;78.87;94951.19;4999558;28;20219;-70
2023/12/08 00:57:38;;;;;;;12.40;10.40;;;;;;;1.94;77.96;94950.88;5005258;28;20301;-69
2023/12/08 01:00:04;;;;;;;12.67;10.33;;;;;;;1.97;77.89;94945.47;4994447;28;20365;-68
2023/12/08 01:02:29;;;;;;;12.83;10.53;;;;;;;1.92;77.98;94952.72;4999245;28;20187;-70
2023/12/08 01:04:55;;;;;;;13.37;10.73;;;;;;;1.95;78.29;94956.88;4998664;28;20215;-68
2023/12/08 01:07:20;;;;;;;11.57;10.30;;;;;;;2.01;78.34;94953.06;5002438;28;20230;-69
2023/12/08 01:09:46;;;;;;;10.97;9.07;;;;;;;1.82;78.45;94956.88;4991773;28;20226;-72
2023/12/08 01:12:11;;;;;;;10.93;9.43;;;;;;;1.98;77.99;94959.28;4991024;28;20222;-69
2023/12/08 01:14:37;;;;;;;10.67;8.77;;;;;;;1.96;77.54;94961.16;5007141;28;20310;-71
2023/12/08 01:17:05;;;;;;;10.40;8.60;;;;;;;1.87;77.79;94962.59;5005381;28;20277;-70
2023/12/08 01:19:31;;;;;;;9.50;8.30;;;;;;;1.86;77.63;94962.69;5003131;28;20225;-71
2023/12/08 01:21:56;;;;;;;9.47;8.47;;;;;;;1.66;78.05;94961.41;5000540;28;20230;-70
2023/12/08 01:24:22;;;;;;;9.63;8.47;;;;;;;1.60;78.57;94959.19;5006652;28;20230;-68
2023/12/08 01:26:47;;;;;;;10.30;9.20;;;;;;;1.58;78.29;94959.28;5002577;28;20201;-70
2023/12/08 01:29:13;;;;;;;8.43;7.57;;;;;;;1.57;78.04;94957.63;5006892;28;20195;-70
2023/12/08 01:31:38;;;;;;;11.37;9.03;;;;;;;1.69;78.03;94956.84;5004194;28;20223;-69
2023/12/08 01:34:04;;;;;;;11.20;10.10;;;;;;;1.69;78.09;94956.00;5002545;28;20236;-70
2023/12/08 01:36:29;;;;;;;11.00;9.90;;;;;;;1.70;77.80;94953.31;4997989;28;20286;-69
2023/12/08 01:38:55;;;;;;;11.60;10.40;;;;;;;1.71;77.85;94960.16;5005023;28;20244;-69
2023/12/08 01:41:21;;;;;;;12.37;11.13;;;;;;;1.79;77.45;94964.00;5001842;28;20277;-69
2023/12/08 01:43:46;;;;;;;12.60;11.37;;;;;;;1.80;76.70;94961.31;5000411;28;20219;-69
2023/12/08 01:46:18;;;;;;;12.17;10.60;;;;;;;1.73;77.32;94957.44;5000942;28;20250;-68
2023/12/08 01:48:44;;;;;;;11.73;10.10;;;;;;;1.80;77.10;94952.72;5003576;28;20211;-68
2023/12/08 01:51:11;;;;;;;13.27;12.00;;;;;;;1.81;76.84;94952.59;5004476;28;20284;-69
2023/12/08 01:53:37;;;;;;;15.33;13.80;;;;;;;1.99;76.77;94958.34;5003833;28;20211;-69
2023/12/08 01:56:03;;;;;;;13.90;12.30;;;;;;;1.93;76.04;94958.75;5003554;28;20219;-68
2023/12/08 01:58:29;;;;;;;12.20;10.93;;;;;;;1.72;76.70;94950.63;5006462;28;20242;-68
2023/12/08 02:00:57;;;;;;;15.60;12.57;;;;;;;1.84;76.72;94949.81;5003788;28;20222;-69
2023/12/08 02:03:24;;;;;;;14.70;11.67;;;;;;;1.80;76.46;94957.91;4997796;28;20227;-68
2023/12/08 02:05:50;;;;;;;14.20;12.20;;;;;;;1.66;76.28;94957.03;4999735;28;20200;-68
2023/12/08 02:08:16;;;;;;;13.37;11.60;;;;;;;1.72;76.41;94951.44;5006157;28;20198;-69
2023/12/08 02:10:41;;;;;;;12.90;11.57;;;;;;;1.87;76.10;94960.00;4998873;28;20223;-68
2023/12/08 02:13:07;;;;;;;13.27;11.37;;;;;;;1.85;75.66;94953.25;4998344;28;20290;-68
2023/12/08 02:15:33;;;;;;;12.20;10.50;;;;;;;1.79;75.54;94954.44;5001515;28;20233;-68
2023/12/08 02:17:58;;;;;;;12.40;11.20;;;;;;;1.65;76.00;94964.91;5003966;28;20199;-68
2023/12/08 02:20:24;;;;;;;13.10;11.60;;;;;;;1.63;76.73;94977.97;5005510;28;20193;-68
2023/12/08 02:22:49;;;;;;;13.43;12.03;;;;;;;1.59;76.39;94968.72;5007124;28;20223;-67
2023/12/08 02:25:14;;;;;;;12.53;11.23;;;;;;;1.65;76.29;94975.25;5000787;28;20227;-68
2023/12/08 02:27:41;;;;;;;12.50;11.13;;;;;;;1.67;76.17;94982.00;4997571;28;20309;-68
2023/12/08 02:30:07;;;;;;;14.17;12.07;;;;;;;1.69;76.09;94977.56;4999385;28;20227;-68
2023/12/08 02:32:45;;;;;;;12.50;11.30;;;;;;;1.62;76.47;94978.88;5002182;28;20183;-68
2023/12/08 02:35:14;;;;;;;14.13;11.17;;;;;;;1.66;75.91;94974.34;5005794;28;20238;-68
2023/12/08 02:37:45;;;;;;;12.00;10.70;;;;;;;1.83;74.86;94983.63;4999696;28;20319;-68
2023/12/08 02:40:10;;;;;;;11.03;9.93;;;;;;;1.82;75.18;94971.56;5003539;28;20222;-68
2023/12/08 02:42:36;;;;;;;13.60;11.10;;;;;;;1.95;75.01;94980.22;5002924;28;20230;-69
2023/12/08 02:45:03;;;;;;;10.27;9.17;;;;;;;1.89;74.49;94978.03;4995784;28;20226;-67
2023/12/08 02:47:29;;;;;;;11.03;9.83;;;;;;;1.74;74.36;94975.50;5007042;28;20239;-68
2023/12/08 02:49:54;;;;;;;13.13;10.23;;;;;;;1.70;74.61;94971.44;5003468;28;20233;-68
2023/12/08 02:52:20;;;;;;;11.90;10.57;;;;;;;1.73;75.42;94967.81;4999763;28;20226;-68
2023/12/08 02:54:45;;;;;;;13.33;10.67;;;;;;;1.56;75.24;94966.34;5003827;28;20236;-68
2023/12/08 02:57:11;;;;;;;11.47;10.03;;;;;;;1.53;75.57;94971.72;4996312;28;20224;-68
2023/12/08 02:59:36;;;;;;;12.17;10.57;;;;;;;1.54;75.16;94973.38;5000185;28;20191;-68
2023/12/08 03:02:01;;;;;;;11.77;10.57;;;;;;;1.50;75.70;94964.13;5000336;28;20302;-67
2023/12/08 03:04:27;;;;;;;10.30;9.30;;;;;;;1.54;75.42;94970.78;5001761;28;20233;-68
2023/12/08 03:06:52;;;;;;;10.80;9.57;;;;;;;1.51;74.96;94966.63;5003137;28;20223;-68
2023/12/08 03:09:17;;;;;;;10.97;9.80;;;;;;;1.68;74.75;94972.47;4999053;28;20346;-69
2023/12/08 03:11:43;;;;;;;11.63;9.83;;;;;;;1.71;74.26;94964.50;5003199;28;20207;-70
2023/12/08 03:14:08;;;;;;;9.77;8.57;;;;;;;1.65;75.04;94973.50;4999021;28;20258;-69
2023/12/08 03:16:34;;;;;;;10.57;9.40;;;;;;;1.60;74.90;94970.38;4999553;28;20223;-69
2023/12/08 03:18:59;;;;;;;10.13;9.13;;;;;;;1.63;74.64;94956.38;5002883;28;20219;-70
2023/12/08 03:21:25;;;;;;;9.00;8.10;;;;;;;1.40;74.88;94958.69;5007121;28;20249;-68
2023/12/08 03:23:51;;;;;;;9.67;8.77;;;;;;;1.44;74.62;94959.31;5006533;28;20202;-69
2023/12/08 03:26:17;;;;;;;10.00;8.50;;;;;;;1.39;74.79;94964.81;5007329;28;20214;-69
2023/12/08 03:28:43;;;;;;;10.00;9.00;;;;;;;1.55;74.59;94969.84;5006152;28;20235;-68
2023/12/08 03:31:26;;;;;;;9.90;8.90;;;;;;;1.44;75.11;94964.50;4995135;28;20314;-68
2023/12/08 03:33:52;;;;;;;10.77;8.97;;;;;;;1.62;74.92;94960.75;5010593;28;20254;-68
2023/12/08 03:36:18;;;;;;;10.23;9.03;;;;;;;1.49;75.59;94965.06;5007027;28;20249;-69
2023/12/08 03:38:43;;;;;;;10.73;8.17;;;;;;;1.43;75.40;94958.50;5000085;28;20183;-70
2023/12/08 03:41:11;;;;;;;8.73;7.77;;;;;;;1.50;75.34;94962.38;5003149;28;20282;-69
2023/12/08 03:43:37;;;;;;;9.33;7.37;;;;;;;1.49;75.07;94965.06;5005993;28;20223;-68
2023/12/08 03:46:02;;;;;;;9.83;8.77;;;;;;;1.49;75.28;94954.69;5002443;28;20309;-71
2023/12/08 03:48:27;;;;;;;9.80;8.80;;;;;;;1.56;74.97;94950.78;5002127;28;20230;-70
2023/12/08 03:50:53;;;;;;;10.70;9.30;;;;;;;1.47;74.80;94943.59;5011561;28;20210;-69
2023/12/08 03:53:18;;;;;;;9.80;8.80;;;;;;;1.40;75.63;94945.75;5002638;28;20204;-69
2023/12/08 03:55:44;;;;;;;10.03;9.03;;;;;;;1.44;75.49;94957.56;5004690;28;20301;-69
2023/12/08 03:58:09;;;;;;;10.47;8.37;;;;;;;1.60;74.58;94947.03;5009247;28;20301;-69
2023/12/08 04:00:34;;;;;;;10.63;8.70;;;;;;;1.51;74.51;94937.28;5005709;28;20254;-70
2023/12/08 04:03:00;;;;;;;8.80;7.90;;;;;;;1.59;75.10;94944.56;5007399;28;20274;-68
2023/12/08 04:05:25;;;;;;;9.53;8.63;;;;;;;1.47;75.27;94934.06;4999811;28;20245;-70
2023/12/08 04:07:51;;;;;;;8.73;7.50;;;;;;;1.40;75.27;94937.97;5003104;28;20233;-69
2023/12/08 04:10:16;;;;;;;8.93;8.03;;;;;;;1.40;74.75;94931.97;5010126;28;20230;-69
2023/12/08 04:12:41;;;;;;;8.80;7.37;;;;;;;1.62;74.77;94923.63;5005341;28;20302;-70
2023/12/08 04:15:07;;;;;;;9.40;8.40;;;;;;;1.62;74.48;94924.47;5001740;28;20232;-70
2023/12/08 04:17:33;;;;;;;10.30;9.27;;;;;;;1.63;74.46;94920.94;4997276;28;20187;-70
2023/12/08 04:19:58;;;;;;;8.50;7.63;;;;;;;1.60;74.39;94928.91;5001820;28;20302;-68
2023/12/08 04:22:24;;;;;;;7.97;7.07;;;;;;;1.60;73.86;94920.31;5005038;28;20286;-68
2023/12/08 04:24:49;;;;;;;8.60;7.70;;;;;;;1.72;73.50;94914.34;5006396;28;20219;-69
2023/12/08 04:27:14;;;;;;;8.47;7.67;;;;;;;1.77;73.55;94909.69;4999619;28;20239;-67
2023/12/08 04:29:40;;;;;;;8.53;7.57;;;;;;;1.75;73.38;94919.31;4989057;28;20201;-68
2023/12/08 04:32:06;;;;;;;9.20;7.50;;;;;;;1.78;72.75;94916.50;4999825;28;20220;-68
2023/12/08 04:34:31;;;;;;;9.77;7.80;;;;;;;1.56;73.01;94924.03;5001780;28;20227;-68
2023/12/08 04:36:56;;;;;;;7.97;7.17;;;;;;;1.49;73.66;94914.06;5007779;28;20223;-67
2023/12/08 04:39:22;;;;;;;9.93;8.43;;;;;;;1.50;74.02;94922.69;5007141;28;20253;-69
2023/12/08 04:41:47;;;;;;;9.63;8.63;;;;;;;1.55;73.83;94925.78;5005619;28;20203;-70
2023/12/08 04:44:13;;;;;;;9.50;8.37;;;;;;;1.47;74.00;94939.25;5007858;28;20190;-70
2023/12/08 04:46:38;;;;;;;10.07;9.07;;;;;;;1.59;74.10;94944.56;5007802;28;20238;-70
2023/12/08 04:49:03;;;;;;;10.50;9.40;;;;;;;1.71;73.46;94934.25;4998362;28;20262;-70
2023/12/08 04:51:29;;;;;;;11.10;8.50;;;;;;;1.60;74.01;94939.28;5004785;28;20310;-70
2023/12/08 04:53:54;;;;;;;9.70;8.57;;;;;;;1.51;73.72;94958.03;5001545;28;20233;-70
2023/12/08 04:56:20;;;;;;;9.33;8.43;;;;;;;1.52;73.64;94947.56;5002824;28;20191;-69
2023/12/08 04:58:47;;;;;;;9.83;8.83;;;;;;;1.50;73.67;94951.19;5001136;28;20250;-69
2023/12/08 05:01:13;;;;;;;9.80;8.83;;;;;;;1.59;73.19;94950.56;5009062;28;20272;-70
2023/12/08 05:03:39;;;;;;;9.43;8.53;;;;;;;1.47;74.12;94948.75;5017445;28;20227;-70
2023/12/08 05:06:05;;;;;;;8.83;7.93;;;;;;;1.46;74.09;94947.94;5006402;28;20243;-71
2023/12/08 05:08:31;;;;;;;8.67;7.83;;;;;;;1.61;73.13;94959.09;4986319;28;20194;-70
2023/12/08 05:10:56;;;;;;;8.53;7.73;;;;;;;1.59;73.03;94957.53;5003756;28;20230;-70
2023/12/08 05:13:22;;;;;;;8.93;7.50;;;;;;;1.67;72.74;94957.88;5005678;28;20227;-71
2023/12/08 05:15:48;;;;;;;9.17;7.53;;;;;;;1.74;72.98;94957.38;5000397;28;20315;-70
2023/12/08 05:18:13;;;;;;;9.37;8.43;;;;;;;1.73;72.41;94952.28;4999608;28;20329;-71
2023/12/08 05:20:38;;;;;;;10.87;7.73;;;;;;;1.70;72.25;94962.84;5000749;28;20191;-71
2023/12/08 05:23:04;;;;;;;9.17;7.67;;;;;;;1.58;72.47;94963.63;5001979;28;20231;-71
2023/12/08 05:25:29;;;;;;;8.33;7.43;;;;;;;1.66;72.71;94961.41;5008523;28;20246;-72
2023/12/08 05:27:54;;;;;;;8.40;7.23;;;;;;;1.65;72.94;94960.53;4999461;28;20226;-71
2023/12/08 05:30:20;;;;;;;8.87;7.87;;;;;;;1.64;72.43;94964.06;4999051;28;20214;-71
2023/12/08 05:32:45;;;;;;;8.13;7.33;;;;;;;1.69;72.70;94963.78;5008440;28;20191;-71
2023/12/08 05:35:11;;;;;;;7.93;7.10;;;;;;;1.69;72.44;94959.44;4996304;28;20289;-70
2023/12/08 05:37:36;;;;;;;9.67;7.87;;;;;;;1.86;72.19;94958.31;5002316;28;20218;-70
2023/12/08 05:40:01;;;;;;;8.33;7.43;;;;;;;2.07;71.61;94963.84;4998384;28;20223;-69
2023/12/08 05:42:27;;;;;;;8.60;6.90;;;;;;;1.96;71.86;94964.56;5000401;28;20250;-70
2023/12/08 05:44:52;;;;;;;7.73;6.67;;;;;;;2.01;71.51;94969.47;5004984;28;20266;-69
2023/12/08 05:47:18;;;;;;;8.30;7.50;;;;;;;1.88;71.77;94959.06;5005921;28;20243;-69
2023/12/08 05:49:43;;;;;;;8.47;7.53;;;;;;;1.95;71.46;94972.44;5007250;28;20237;-70
2023/12/08 05:52:09;;;;;;;6.90;6.30;;;;;;;1.93;71.57;94976.91;4999721;28;20236;-72
2023/12/08 05:54:35;;;;;;;7.57;6.77;;;;;;;1.84;71.75;94987.88;5001070;28;20233;-72
2023/12/08 05:57:00;;;;;;;8.20;7.33;;;;;;;1.76;72.25;94984.03;4989302;28;20187;-71
2023/12/08 05:59:26;;;;;;;8.93;7.87;;;;;;;1.85;72.25;94976.59;5002771;28;20182;-73
2023/12/08 06:01:52;;;;;;;9.13;8.23;;;;;;;1.83;71.47;94975.84;5008184;28;20223;-71
2023/12/08 06:04:17;;;;;;;9.30;8.13;;;;;;;2.03;71.86;94985.72;5005043;28;20265;-72
2023/12/08 06:06:42;;;;;;;8.83;7.73;;;;;;;2.11;71.24;94978.31;5001336;28;20302;-72
2023/12/08 06:09:08;;;;;;;9.33;7.90;;;;;;;2.15;70.91;94992.72;5005107;28;20223;-71
2023/12/08 06:11:33;;;;;;;8.70;7.40;;;;;;;2.31;70.59;94989.09;5004298;28;20242;-72
2023/12/08 06:13:58;;;;;;;9.00;7.70;;;;;;;2.38;69.73;94985.19;5002465;28;20231;-76
2023/12/08 06:16:25;;;;;;;10.13;7.63;;;;;;;2.38;69.26;94985.19;5006452;28;20227;-74
2023/12/08 06:18:50;;;;;;;8.03;6.77;;;;;;;2.35;68.39;94980.16;5001442;28;20223;-74
2023/12/08 06:21:17;;;;;;;7.77;6.73;;;;;;;2.14;68.52;94980.69;4993940;28;20242;-74
2023/12/08 06:23:42;;;;;;;7.73;5.93;;;;;;;2.18;68.39;94989.91;5004615;28;20278;-70
2023/12/08 06:26:08;;;;;;;9.23;6.83;;;;;;;2.24;69.04;94988.66;5003293;28;20313;-76
2023/12/08 06:28:33;;;;;;;8.67;7.23;;;;;;;2.23;69.84;94997.41;5000365;28;20249;-76
2023/12/08 06:30:58;;;;;;;7.83;6.37;;;;;;;2.34;68.88;94994.09;5003321;28;20227;-75
2023/12/08 06:33:24;;;;;;;9.03;6.30;;;;;;;2.32;68.63;95001.97;5006084;28;20246;-73
2023/12/08 06:35:49;;;;;;;8.33;7.00;;;;;;;2.27;68.64;95006.63;5001749;28;20194;-74
2023/12/08 06:38:15;;;;;;;7.73;6.67;;;;;;;2.18;68.95;94999.47;5006942;28;20194;-75
2023/12/08 06:40:41;;;;;;;8.87;7.00;;;;;;;2.13;68.81;95002.34;5004173;28;20220;-75
2023/12/08 06:43:06;;;;;;;8.17;7.37;;;;;;;1.90;70.01;95003.03;5003297;28;20323;-75
2023/12/08 06:45:33;;;;;;;7.90;7.10;;;;;;;2.23;69.49;95010.38;5003206;28;20222;-76
2023/12/08 06:47:58;;;;;;;9.57;8.20;;;;;;;2.30;69.08;95003.00;4998935;28;20238;-77
2023/12/08 06:50:24;;;;;;;10.13;8.13;;;;;;;2.22;69.67;95011.31;4999867;28;20210;-75
2023/12/08 06:52:51;;;;;;;8.27;7.37;;;;;;;2.16;69.24;95002.16;5003680;28;20253;-75
2023/12/08 06:55:18;;;;;;;8.97;8.07;;;;;;;2.14;69.75;95006.63;5002617;28;20227;-75
2023/12/08 06:57:43;;;;;;;8.27;7.27;;;;;;;2.16;69.17;95016.88;5004450;28;20224;-74
2023/12/08 07:00:10;;;;;;;9.57;8.27;;;;;;;2.09;70.25;95011.28;5004237;28;20226;-77
2023/12/08 07:02:36;;;;;;;8.73;7.77;;;;;;;2.07;70.30;95012.31;5016732;28;20195;-73
2023/12/08 07:05:02;;;;;;;10.93;8.40;;;;;;;2.06;70.33;95006.31;5005304;28;20239;-74
2023/12/08 07:07:27;;;;;;;9.47;8.07;;;;;;;2.16;70.50;95017.72;5016896;28;20253;-79
2023/12/08 07:09:52;;;;;;;8.30;7.50;;;;;;;2.22;69.25;95006.13;5016586;28;20219;-80
2023/12/08 07:12:18;;;;;;;9.83;8.00;;;;;;;2.18;69.17;95023.63;5015742;28;20306;-79
2023/12/08 07:14:43;;;;;;;9.80;8.80;;;;;;;2.10;70.17;95017.28;5007939;28;20210;-71
2023/12/08 07:17:08;;;;;;;9.27;7.57;;;;;;;2.10;69.68;95006.91;5013046;28;20258;-79
2023/12/08 07:19:37;;;;;;;8.57;7.50;;;;;;;2.03;70.16;95006.47;5017788;28;20243;-79
2023/12/08 07:22:02;;;;;;;9.63;8.33;;;;;;;2.16;69.67;95017.72;5006227;28;20223;-81
2023/12/08 07:24:28;;;;;;;9.70;8.43;;;;;;;2.11;70.57;95013.75;5015561;28;20223;-80
2023/12/08 07:26:54;;;;;;;11.37;9.27;;;;;;;2.12;70.24;95016.25;5013041;28;20183;-78
2023/12/08 07:29:23;;;;;;;9.23;8.33;;;;;;;2.05;70.16;95020.19;5018187;28;20281;-81
2023/12/08 07:31:48;;;;;;;11.47;8.13;;;;;;;2.12;70.22;95021.44;5005735;28;20274;-81
2023/12/08 07:34:14;;;;;;;9.73;8.37;;;;;;;2.10;70.19;95018.13;5001919;28;20219;-78
2023/12/08 07:36:39;;;;;;;11.47;9.33;;;;;;;2.11;70.51;95019.81;5011571;28;20222;-79
2023/12/08 07:39:06;;;;;;;9.00;8.07;;;;;;;2.03;70.74;95024.63;5009055;28;20226;-80
2023/12/08 07:41:32;;;;;;;8.97;8.07;;;;;;;1.92;71.24;95016.72;5005672;28;20247;-74
2023/12/08 07:43:57;;;;;;;8.67;7.77;;;;;;;2.04;70.71;95020.31;5009248;28;20303;-79
2023/12/08 07:46:25;;;;;;;8.90;7.47;;;;;;;2.16;69.77;95022.06;5001787;28;20231;-79
2023/12/08 07:48:51;;;;;;;9.57;7.70;;;;;;;2.04;70.28;95028.06;5008847;28;20223;-78
2023/12/08 07:51:17;;;;;;;8.70;7.23;;;;;;;2.26;69.49;95033.50;5010527;28;20226;-75
2023/12/08 07:53:43;;;;;;;9.87;8.23;;;;;;;2.18;69.63;95026.22;5002883;28;20199;-72
2023/12/08 07:56:08;;;;;;;9.10;8.10;;;;;;;2.27;69.28;95029.16;5000635;28;20223;-81
2023/12/08 07:58:34;;;;;;;9.03;7.90;;;;;;;2.41;69.57;95026.50;5000022;28;20254;-72
2023/12/08 08:00:59;;;;;;;8.73;7.73;;;;;;;2.25;69.28;95031.03;5004665;28;20220;-76
2023/12/08 08:03:26;;;;;;;9.43;8.43;;;;;;;2.05;70.18;95024.53;5015648;28;20243;-78
2023/12/08 08:05:51;;;;;;;11.33;8.50;;;;;;;2.07;69.69;95022.69;5016545;28;20187;-77
2023/12/08 08:08:17;;;;;;;10.30;8.50;;;;;;;1.87;71.43;95021.38;5008757;28;20203;-76
2023/12/08 08:10:43;;;;;;;10.90;9.13;;;;;;;1.86;71.30;95012.75;5010548;28;20230;-76
2023/12/08 08:13:08;;;;;;;10.00;8.73;;;;;;;1.96;70.69;95010.41;5007729;28;20227;-76
2023/12/08 08:15:34;;;;;;;9.40;8.43;;;;;;;2.00;70.58;95011.88;5005340;28;20281;-81
2023/12/08 08:17:59;;;;;;;10.33;9.23;;;;;;;1.84;70.78;95012.03;5008244;28;20183;-78
2023/12/08 08:20:25;;;;;;;9.67;8.60;;;;;;;1.97;70.54;95010.31;5006846;28;20199;-79
2023/12/08 08:22:50;;;;;;;9.73;8.70;;;;;;;1.99;70.12;95012.81;5013884;28;20341;-78
2023/12/08 08:25:16;;;;;;;10.27;9.27;;;;;;;2.06;70.02;95000.25;5000677;28;20239;-79
2023/12/08 08:27:41;;;;;;;9.37;8.10;;;;;;;1.95;70.32;94991.44;5011328;28;20211;-78
2023/12/08 08:30:07;;;;;;;10.10;8.70;;;;;;;2.10;70.05;94987.00;5010420;28;20218;-79
2023/12/08 08:32:32;;;;;;;10.87;9.33;;;;;;;2.17;69.69;94988.25;5019329;28;20183;-81
2023/12/08 08:34:58;;;;;;;9.63;7.73;;;;;;;2.25;69.38;94990.34;5008081;28;20226;-76
2023/12/08 08:37:24;;;;;;;9.87;7.83;;;;;;;2.27;69.27;94987.63;5003855;28;20223;-75
2023/12/08 08:39:50;;;;;;;10.30;8.43;;;;;;;2.31;69.16;94984.75;5004535;28;20227;-77
2023/12/08 08:42:17;;;;;;;9.40;7.67;;;;;;;2.31;68.82;94979.56;5008478;28;20226;-80
2023/12/08 08:44:42;;;;;;;9.37;8.37;;;;;;;2.33;68.87;94982.88;5009884;28;20186;-79
2023/12/08 08:47:07;;;;;;;10.90;8.17;;;;;;;2.40;68.61;94978.09;5005093;28;20243;-79
2023/12/08 08:49:33;;;;;;;9.73;8.00;;;;;;;2.44;68.32;94982.16;5007510;28;20229;-79
2023/12/08 08:52:00;;;;;;;8.80;6.97;;;;;;;2.38;68.58;94970.44;5011600;28;20219;-82
2023/12/08 08:54:25;;;;;;;9.87;8.27;;;;;;;2.54;68.61;94975.41;5011641;28;20226;-78
2023/12/08 08:56:51;;;;;;;9.37;8.37;;;;;;;2.62;68.16;94973.13;5005837;28;20237;-74
2023/12/08 08:59:16;;;;;;;8.23;7.30;;;;;;;2.65;67.25;94967.72;5002868;28;20298;-74
2023/12/08 09:01:42;;;;;;;8.83;7.93;;;;;;;2.69;67.01;94972.69;4999441;28;20219;-72
2023/12/08 09:04:08;;;;;;;9.43;7.40;;;;;;;2.73;66.92;94963.78;5003983;28;20262;-72
2023/12/08 09:06:33;;;;;;;8.97;8.07;;;;;;;2.62;67.68;94967.94;5006846;28;20216;-76
2023/12/08 09:09:00;;;;;;;8.87;7.70;;;;;;;2.49;68.81;94961.91;5003405;28;20198;-76
2023/12/08 09:11:26;;;;;;;9.50;7.67;;;;;;;2.59;67.99;94967.31;5010748;28;20187;-76
2023/12/08 09:13:52;;;;;;;8.80;7.90;;;;;;;2.56;67.75;94960.56;5001192;28;20278;-72
2023/12/08 09:16:18;;;;;;;9.20;7.47;;;;;;;2.48;67.81;94954.22;4997081;28;20230;-71
2023/12/08 09:18:43;;;;;;;8.43;7.53;;;;;;;2.54;67.35;94952.06;5001982;28;20223;-78
2023/12/08 09:21:09;;;;;;;9.33;7.90;;;;;;;2.71;67.33;94952.66;5008236;28;20209;-73
2023/12/08 09:23:34;;;;;;;10.30;8.37;;;;;;;2.45;68.27;94947.47;5000163;28;20190;-71
2023/12/08 09:26:00;;;;;;;8.60;7.33;;;;;;;2.56;68.19;94947.56;5008945;28;20358;-73
2023/12/08 09:28:25;;;;;;;8.57;7.27;;;;;;;2.45;67.81;94944.88;5009304;28;20358;-69
2023/12/08 09:30:50;;;;;;;8.97;8.00;;;;;;;2.47;67.58;94937.00;5003031;28;20224;-73
2023/12/08 09:33:16;;;;;;;8.50;7.53;;;;;;;2.58;67.10;94929.31;5008409;28;20233;-74
2023/12/08 09:35:41;;;;;;;10.83;7.40;;;;;;;2.59;67.12;94937.00;5004473;28;20206;-70
2023/12/08 09:38:07;;;;;;;9.50;7.57;;;;;;;2.61;66.52;94940.31;5003383;28;20251;-75
2023/12/08 09:40:35;;;;;;;9.67;8.27;;;;;;;2.51;67.64;94941.03;5002188;28;20219;-75
2023/12/08 09:43:08;;;;;;;8.30;7.10;;;;;;;2.53;66.93;94932.22;5004027;28;20239;-73
2023/12/08 09:45:36;;;;;;;10.07;7.47;;;;;;;2.47;66.27;94919.66;5006702;28;20223;-72
2023/12/08 09:48:05;;;;;;;9.40;7.63;;;;;;;2.55;66.95;94924.34;5003831;28;20235;-78
2023/12/08 09:50:32;;;;;;;9.63;8.60;;;;;;;2.53;67.55;94923.59;4991424;28;20287;-78
2023/12/08 09:52:58;;;;;;;9.57;7.83;;;;;;;2.77;66.51;94929.69;5009672;28;20235;-79
2023/12/08 09:55:23;;;;;;;9.60;7.90;;;;;;;2.70;66.17;94923.28;4999489;28;20227;-76
2023/12/08 09:57:52;;;;;;;9.27;7.67;;;;;;;2.58;66.14;94919.75;4992583;28;20226;-78
2023/12/08 10:00:20;;;;;;;9.90;7.47;;;;;;;2.75;66.22;94925.53;5003091;28;20222;-71
2023/12/08 10:02:45;;;;;;;9.10;7.67;;;;;;;2.73;65.81;94917.03;5009039;28;20187;-71
2023/12/08 10:05:11;;;;;;;8.67;7.37;;;;;;;2.65;65.69;94914.97;4999930;28;20288;-74
2023/12/08 10:07:39;;;;;;;9.00;6.83;;;;;;;2.69;65.88;94911.22;5018794;28;20231;-71
2023/12/08 10:10:05;;;;;;;8.40;7.53;;;;;;;2.69;65.66;94905.19;5001152;28;20222;-71
2023/12/08 10:12:30;;;;;;;8.07;7.03;;;;;;;2.87;65.76;94903.91;5000470;28;20225;-76
2023/12/08 10:14:58;;;;;;;8.80;7.83;;;;;;;2.94;65.95;94891.31;5001282;28;20223;-72
2023/12/08 10:17:24;;;;;;;9.07;7.90;;;;;;;2.95;65.83;94901.59;5006582;28;20257;-72
2023/12/08 10:19:51;;;;;;;9.53;7.60;;;;;;;2.86;65.59;94882.31;5004159;28;20277;-71
2023/12/08 10:22:17;;;;;;;8.87;7.70;;;;;;;3.04;65.63;94890.56;5003759;28;20260;-72
2023/12/08 10:24:42;;;;;;;8.63;7.73;;;;;;;3.02;65.26;94882.06;5003178;28;20242;-71
2023/12/08 10:27:11;;;;;;;8.53;7.53;;;;;;;2.95;65.18;94896.41;5001529;28;20606;-71
2023/12/08 10:29:37;;;;;;;8.20;7.10;;;;;;;3.00;64.82;94896.91;5008071;28;20191;-77
2023/12/08 10:32:04;;;;;;;9.33;7.90;;;;;;;2.99;65.65;94895.25;5003398;28;20220;-70
2023/12/08 10:34:30;;;;;;;9.53;7.43;;;;;;;2.98;65.34;94885.81;5011144;28;20273;-77
2023/12/08 10:36:57;;;;;;;11.03;8.13;;;;;;;2.92;65.29;94891.44;5003636;28;20223;-77
2023/12/08 10:39:25;;;;;;;9.43;7.87;;;;;;;2.94;65.59;94886.13;5012890;28;20223;-73
2023/12/08 10:41:50;;;;;;;10.40;8.03;;;;;;;3.05;64.93;94888.81;5006316;28;20190;-70
2023/12/08 10:44:22;;;;;;;11.83;8.03;;;;;;;2.93;65.39;94889.66;5006152;28;20211;-75
2023/12/08 10:46:48;;;;;;;9.67;8.00;;;;;;;3.03;66.47;94883.72;5004624;28;20337;-76
2023/12/08 10:49:19;;;;;;;9.93;8.80;;;;;;;3.15;65.25;94884.59;5002751;28;20294;-76
2023/12/08 10:51:47;;;;;;;13.40;9.33;;;;;;;3.18;65.45;94883.53;5007668;28;20285;-76
2023/12/08 10:54:17;;;;;;;12.73;8.50;;;;;;;3.35;64.80;94888.38;5008199;28;20203;-76
2023/12/08 10:56:46;;;;;;;10.43;8.70;;;;;;;3.26;65.26;94878.63;5008723;28;20221;-71
2023/12/08 10:59:24;;;;;;;9.10;7.90;;;;;;;3.19;65.47;94882.63;5006530;28;20235;-75
2023/12/08 11:01:52;;;;;;;9.83;8.77;;;;;;;3.10;66.35;94865.91;4997934;28;20223;-75
2023/12/08 11:04:21;;;;;;;11.47;8.00;;;;;;;3.18;65.90;94868.81;5011117;28;20243;-74
2023/12/08 11:06:56;;;;;;;9.40;8.40;;;;;;;3.28;64.83;94868.94;5008585;28;20249;-75
2023/12/08 11:09:24;;;;;;;12.03;9.43;;;;;;;3.45;64.38;94868.56;5006999;28;20238;-74
2023/12/08 11:11:56;;;;;;;9.57;8.60;;;;;;;3.47;64.27;94876.25;4991085;28;20191;-71
2023/12/08 11:14:35;;;;;;;10.40;9.00;;;;;;;3.13;65.59;94870.06;5010689;28;20239;-70
2023/12/08 11:17:04;;;;;;;10.47;9.27;;;;;;;3.24;66.13;94862.34;5004724;28;20231;-75
2023/12/08 11:19:31;;;;;;;10.43;8.53;;;;;;;3.38;65.40;94858.72;5010261;28;20265;-75
2023/12/08 11:21:59;;;;;;;14.90;11.83;;;;;;;3.46;64.71;94865.00;5008473;28;20216;-70
2023/12/08 11:24:26;;;;;;;12.77;11.30;;;;;;;3.43;64.88;94865.25;5009009;28;20219;-75
2023/12/08 11:27:11;;;;;;;12.73;10.50;;;;;;;3.44;64.55;94851.28;5002740;28;20188;-72
2023/12/08 11:29:47;;;;;;;10.67;9.23;;;;;;;3.41;64.43;94859.31;5010192;28;20323;-71
2023/12/08 11:32:23;;;;;;;11.20;10.10;;;;;;;3.46;64.53;94851.19;5008945;28;20272;-72